航空気象通報

ウインドサーファーのための航空気象通報による風予報です。

6/16-6/18の航空気象通報

2017年06月16日 22時03分37秒 | TAF
羽田空港
TAF RJTT 161105Z 1612/1718 02012KT 9999 FEW030
BECMG 1700/1703 12010KT
BECMG 1712/1715 02012KT
日本時間16日22時-17日09時:020度から12ノットの風
09-12時:風が変化
12-21時:120度から10ノットの風
21-24時:風が変化
18日00-03時:020度から12ノットの風


静岡空港
TAF RJNS 161107Z 1612/1718 27014KT 9999 FEW020 SCT040
BECMG 1613/1615 04004KT
BECMG 1703/1706 14012KT
BECMG 1712/1715 36004KT
日本時間16日21-22時:270度から14ノットの風
22-24時:風が変化
17日00-12時:040度から4ノットの風
12-15時:風が変化
15-21時:140度から12ノットの風
21-24時:風が変化
18日00-03時:360度から4ノットの風


福岡空港
TAF RJFF 161106Z 1612/1718 33005KT 9999 FEW030
BECMG 1613/1615 15003KT
BECMG 1700/1703 34012KT
BECMG 1709/1712 14003KT
日本時間16日21-22時:330度から5ノットの風
22-24時:風が変化
17日00-09時:150度から3ノットの風
09-12時:風が変化
12-18時:340度から12ノットの風
18-21時:風が変化
21時-18日03時:140度から3ノットの風


那覇空港
TAF ROAH 161109Z 1612/1718 08010KT 9999 FEW010 BKN025
TEMPO 1616/1619 4000 SHRA
TEMPO 1700/1703 4000 SHRA FEW006 BKN015 FEW020CB
TEMPO 1703/1709 2000 +SHRA FEW006 BKN015 SCT020CB
BECMG 1712/1715 02011KT
日本時間16日12時-17日21時:080度から10ノットの風
21-24時:風が変化
18日00-03時:020度から11ノットの風

但し、17日01-04時の間:ときどき
但し、17日09-18時の間:ときどき

石垣空港
TAF ROIG 161120Z 1612/1718 08006KT 9999 FEW008 BKN015
BECMG 1613/1615 19006KT
TEMPO 1622/1700 4000 SHRA FEW005 BKN008 FEW015CB
BECMG 1700/1703 25015KT
TEMPO 1700/1709 3000 +TSRA FEW005 BKN008 FEW015CB
BECMG 1709/1712 02006KT
日本時間16日21-22時:080度から6ノットの風
22-24時:風が変化
17日00-09時:190度から6ノットの風
09-12時:風が変化
12-18時:250度から15ノットの風
18-21時:風が変化
21時-18日03時:020度から6ノットの風

但し、17日07-09時の間:ときどき
但し、17日09-18時の間:ときどき

マウイのカフルイ空港
PHOG 161137Z 1612/1712 06005KT P6SM FEW025 SCT050 SCT220
FM162000 06015G22KT P6SM FEW025 SCT050 SCT220
FM170700 06005KT P6SM FEW025 SCT050 SCT220
ハワイ時間16日02-10時:060度から5ノットの風
10-21時:060度から15ノット、突風22ノット
20時-17日02時:060度から5ノットの風


サイパン空港
TAF PGSN 161120Z 1612/1712 09010KT P6SM VCSH SCT020 SCT050
マリアナ時間16日22時-17日22時:090度から10ノットの風

ジャンル:
お天気
コメント   この記事についてブログを書く
この記事をはてなブックマークに追加
« 6/15-6/17の航空気象通報 | トップ | 6/17-6/19の航空気象通報 »
最近の画像もっと見る

コメントを投稿

ブログ作成者から承認されるまでコメントは反映されません。

コメント利用規約に同意の上コメント投稿を行ってください。

数字4桁を入力し、投稿ボタンを押してください。

あわせて読む

トラックバック

この記事のトラックバック  Ping-URL
ブログ作成者から承認されるまでトラックバックは反映されません。
  • 30日以上前の記事に対するトラックバックは受け取らないよう設定されております。
  • 送信元の記事内容が半角英数のみのトラックバックは受け取らないよう設定されております。
  • このブログへのリンクがない記事からのトラックバックは受け取らないよう設定されております。
  • ※ブログ管理者のみ、編集画面で設定の変更が可能です。